createdAt,value
2023-05-17T00:03:16.111Z,98287.69
2023-05-17T00:13:42.719Z,98276.40
2023-05-17T00:24:09.457Z,98274.14
2023-05-17T00:34:35.135Z,98278.95
2023-05-17T00:45:00.967Z,98274.88
2023-05-17T00:55:27.700Z,98276.45
2023-05-17T01:05:53.650Z,98263.27
2023-05-17T01:16:41.819Z,98275.78
2023-05-17T01:27:08.511Z,98275.15
2023-05-17T01:37:34.530Z,98274.30
2023-05-17T01:48:09.732Z,98288.29
2023-05-17T01:58:46.327Z,98297.98
2023-05-17T02:09:12.242Z,98300.13
2023-05-17T02:19:37.972Z,98298.91
2023-05-17T02:30:04.920Z,98305.94
2023-05-17T02:40:30.627Z,98306.66
2023-05-17T02:50:56.446Z,98310.91
2023-05-17T03:01:22.569Z,98311.80
2023-05-17T03:11:48.314Z,98322.70
2023-05-17T03:22:13.895Z,98339.38
2023-05-17T03:32:41.596Z,98331.11
2023-05-17T03:43:07.983Z,98335.96
2023-05-17T03:53:34.260Z,98326.00
2023-05-17T04:04:01.617Z,98352.55
2023-05-17T04:14:27.255Z,98366.91
2023-05-17T04:24:53.157Z,98392.77
2023-05-17T04:35:19.310Z,98398.75
2023-05-17T04:45:45.212Z,98410.84
2023-05-17T04:56:11.420Z,98411.54
2023-05-17T05:17:21.184Z,98433.62
2023-05-17T05:27:46.880Z,98449.26
2023-05-17T05:38:13.132Z,98460.77
2023-05-17T05:48:42.046Z,98469.02
2023-05-17T05:59:08.334Z,98489.08
2023-05-17T06:09:34.115Z,98507.35
2023-05-17T06:20:00.169Z,98520.80
2023-05-17T06:30:28.162Z,98536.07
2023-05-17T06:40:56.294Z,98539.97
2023-05-17T06:51:22.729Z,98549.79
2023-05-17T07:01:50.518Z,98557.94
2023-05-17T07:12:14.966Z,98570.55
2023-05-17T07:22:41.554Z,98587.95
2023-05-17T07:33:07.899Z,98604.39
2023-05-17T07:43:33.724Z,98610.21
2023-05-17T07:53:59.799Z,98620.59
2023-05-17T08:04:25.690Z,98632.98
2023-05-17T08:14:52.061Z,98655.31
2023-05-17T08:25:18.103Z,98663.42
2023-05-17T08:35:44.219Z,98671.36
2023-05-17T08:46:11.321Z,98671.44
2023-05-17T08:56:40.312Z,98681.71
2023-05-17T09:07:06.544Z,98683.22
2023-05-17T09:17:34.131Z,98692.73
2023-05-17T09:28:03.953Z,98703.39
2023-05-17T09:38:31.113Z,98712.16
2023-05-17T09:48:59.938Z,98719.72
2023-05-17T09:59:28.824Z,98723.84
2023-05-17T10:09:55.904Z,98731.14
2023-05-17T10:20:23.556Z,98740.08
2023-05-17T10:30:51.529Z,98754.70
2023-05-17T10:41:17.153Z,98774.86
2023-05-17T10:51:42.875Z,98789.70
2023-05-17T11:02:10.323Z,98804.04
2023-05-17T11:12:40.521Z,98808.07
2023-05-17T11:23:08.370Z,98802.89
2023-05-17T11:33:43.807Z,98807.00
2023-05-17T11:44:26.250Z,98811.23
2023-05-17T11:54:53.103Z,98819.90
2023-05-17T12:05:23.763Z,98836.33
2023-05-17T12:15:56.374Z,98844.70
2023-05-17T12:26:23.427Z,98864.60
2023-05-17T12:36:49.970Z,98872.63
2023-05-17T12:47:15.975Z,98878.33
2023-05-17T12:57:49.539Z,98897.40
2023-05-17T13:08:25.128Z,98917.68
2023-05-17T13:18:53.171Z,98919.86
2023-05-17T13:29:23.083Z,98922.27
2023-05-17T13:39:56.752Z,98931.45
2023-05-17T13:50:24.057Z,98937.80
2023-05-17T14:00:49.808Z,98937.92
2023-05-17T14:11:15.769Z,98950.81
2023-05-17T14:21:41.744Z,98963.13
2023-05-17T14:32:08.817Z,98966.19
2023-05-17T14:42:34.705Z,98975.04
2023-05-17T14:53:01.390Z,98987.36
2023-05-17T15:03:27.366Z,98992.10
2023-05-17T15:13:52.989Z,99001.64
2023-05-17T15:24:18.751Z,99015.01
2023-05-17T15:34:45.496Z,99013.64
2023-05-17T15:45:12.560Z,99013.81
2023-05-17T15:55:38.657Z,99025.49
2023-05-17T16:06:05.512Z,99030.69
2023-05-17T16:16:31.636Z,99034.78
2023-05-17T16:26:58.094Z,99028.48
2023-05-17T16:37:24.169Z,99032.13
2023-05-17T16:47:50.686Z,99028.62
2023-05-17T16:58:16.299Z,99048.55
2023-05-17T17:08:42.161Z,99057.52
2023-05-17T17:19:08.041Z,99066.70
2023-05-17T17:29:34.613Z,99083.55
2023-05-17T17:40:00.445Z,99102.34
2023-05-17T17:50:26.045Z,99110.90
2023-05-17T18:00:52.081Z,99105.39
2023-05-17T18:11:18.699Z,99105.13
2023-05-17T18:21:44.906Z,99108.11
2023-05-17T18:32:12.125Z,99120.27
2023-05-17T18:42:38.071Z,99127.66
2023-05-17T18:53:04.184Z,99141.15
2023-05-17T19:03:29.844Z,99143.73
2023-05-17T19:13:55.811Z,99160.56
2023-05-17T19:24:21.473Z,99167.30
2023-05-17T19:34:47.448Z,99167.86
2023-05-17T19:45:14.811Z,99171.34
2023-05-17T19:55:41.187Z,99191.30
2023-05-17T20:06:07.232Z,99203.41
2023-05-17T20:16:33.078Z,99212.27
2023-05-17T20:26:59.487Z,99220.03
2023-05-17T20:37:25.662Z,99213.59
2023-05-17T20:47:52.431Z,99212.19
2023-05-17T20:58:18.437Z,99216.58
2023-05-17T21:08:44.845Z,99230.77
2023-05-17T21:19:10.621Z,99235.38
2023-05-17T21:29:36.413Z,99230.75
2023-05-17T21:40:02.182Z,99232.98
2023-05-17T21:50:28.500Z,99234.69
2023-05-17T22:00:54.799Z,99235.79
2023-05-17T22:11:22.972Z,99244.65
2023-05-17T22:21:48.643Z,99251.02
2023-05-17T22:32:15.643Z,99247.96
2023-05-17T22:42:43.299Z,99239.40
2023-05-17T22:53:11.312Z,99237.69
2023-05-17T23:03:37.546Z,99243.59
2023-05-17T23:14:03.793Z,99241.13
2023-05-17T23:24:29.610Z,99229.39
2023-05-17T23:34:58.533Z,99228.94
2023-05-17T23:45:25.041Z,99229.14
2023-05-17T23:55:51.116Z,99227.98
